Copper Center, AK (99573)

1:26 AM AKDT on August 30, 2015 (GMT -0800)
Klutina River | | Change Station
CLOSE
Current Station
Personal Weather Station
Location: Copper Center, AK
Elevation: 1100 ft
Nearby Weather Stations

Elev 1100 ft 61.95 °N, 145.32 °W | Updated 6 seconds ago

Partly Cloudy
Partly Cloudy
40.0 °F
Feels Like 40 °F
N
0.0
Wind Variable Wind from NNW
Gusts 11.0 mph

Today
High -- | Low -- °F
--% Chance of Precip.
Yesterday
High -- | Low -- °F
Precip. -- in
6:25 AM 8:56 PM
Waxing Gibbous, 99% visible
Pressure 29.28 in
Visibility 10.0 miles
Clouds Few 7500 ft
Windchill 40 °F
Dew Point 31 °F
Humidity 69%
Rainfall 0.00 in
Snow Depth Not available.
UV 0 out of 12
Pollen Not available.
Air Quality Not available.
Flu Activity Not available.
METAR PAGK 300853Z AUTO 32005KT 10SM FEW075 03/M04 A2923 RMK AO2 SLP914 T00331039 401001017 58005 TSNO
Pressure 29.28 in
Visibility 10.0 miles
Clouds Few 7500 ft
Windchill 40 °F
Dew Point 31 °F
Humidity 69%
Rainfall 0.00 in
Snow Depth Not available.
UV 0 out of 12
Pollen Not available.
Air Quality Not available.
Flu Activity Not available.
METAR PAGK 300853Z AUTO 32005KT 10SM FEW075 03/M04 A2923 RMK AO2 SLP914 T00331039 401001017 58005 TSNO

10-Day Weather Forecast

×

Almanac

Astronomy

Aug. 30, 2015 Rise Set
Actual Time
Civil Twilight
Nautical Twilight
Astronomical Twilight
Moon
Length of Visible Light
Length of Day
Tomorrow will be .
, % of the Moon is Illuminated

Today's Extremes

State Highs State Lows

Community

WunderPhotos

Upload Photos

1,850,909 photos uploaded!

WunderBlogs® & News

Nearby

Air Quality

  Air Quality AQ Index Pollutant
Not available.

Snow Depth

Station Depth Elevation

Earthquake Activity

City Distance Mag. Time & Date
Minimum magnitude displayed is 2.5.

Coastal Water Temperatures

Place Temperature

Stations

Nearby Weather Stations

Station Location Temp. Windchill Dew Point Humidity Wind Precip. Elev Updated Type